Time;durP1;ratioP1;P1;durP2;ratioP2;P2;SDS_P1;SDS_P2;PMS_P1;PMS_P2;Temp;Humidity;BMP_temperature;BMP_pressure;BME280_temperature;BME280_humidity;BME280_pressure;Samples;Min_cycle;Max_cycle;Signal;HPM_P1;HPM_P2
2021/07/28 00:01:53;;;;;;;4.07;3.77;;;;;;;26.26;46.47;98084.47;5045907;28;20228;-58
2021/07/28 00:04:20;;;;;;;4.57;4.20;;;;;;;26.24;46.24;98086.56;5047191;28;20210;-58
2021/07/28 00:06:47;;;;;;;4.10;3.80;;;;;;;26.19;46.25;98081.06;5060992;28;20205;-58
2021/07/28 00:09:13;;;;;;;4.30;4.00;;;;;;;26.20;46.43;98086.19;5047447;28;20194;-58
2021/07/28 00:11:40;;;;;;;4.00;3.70;;;;;;;26.25;46.02;98082.84;5044681;28;20254;-58
2021/07/28 00:14:06;;;;;;;4.10;3.80;;;;;;;26.26;46.07;98092.50;5047728;28;20190;-58
2021/07/28 00:16:33;;;;;;;4.13;3.83;;;;;;;26.25;46.09;98082.06;5065807;28;20198;-58
2021/07/28 00:24:11;;;;;;;4.13;3.80;;;;;;;26.29;45.89;98085.91;5051392;28;20182;-58
2021/07/28 00:26:38;;;;;;;4.63;3.93;;;;;;;26.26;45.93;98089.84;5047796;28;20475;-58
2021/07/28 00:29:05;;;;;;;4.20;3.80;;;;;;;26.27;45.78;98085.31;5047627;28;20174;-58
2021/07/28 00:31:31;;;;;;;4.13;3.83;;;;;;;26.28;46.17;98103.00;5042650;28;20190;-58
2021/07/28 00:33:58;;;;;;;4.33;4.03;;;;;;;26.21;46.14;98095.88;5045341;28;20190;-58
2021/07/28 00:36:24;;;;;;;4.57;4.23;;;;;;;26.23;45.89;98095.63;5047568;28;20194;-58
2021/07/28 00:38:51;;;;;;;4.30;4.00;;;;;;;26.22;46.19;98088.66;5042667;28;20182;-58
2021/07/28 00:41:17;;;;;;;4.43;4.03;;;;;;;26.21;46.35;98092.38;5043379;28;20656;-58
2021/07/28 00:43:44;;;;;;;3.90;3.60;;;;;;;26.22;46.17;98094.00;5046387;28;20216;-57
2021/07/28 00:46:11;;;;;;;4.17;3.87;;;;;;;26.24;46.17;98091.91;5043890;28;20197;-58
2021/07/28 00:48:37;;;;;;;3.83;3.53;;;;;;;26.18;45.97;98085.59;5044757;28;20194;-58
2021/07/28 00:51:09;;;;;;;4.20;3.90;;;;;;;26.12;46.31;98088.28;5049289;28;20682;-57
2021/07/28 00:53:35;;;;;;;4.20;3.83;;;;;;;26.10;46.31;98091.19;5052092;28;20270;-58
2021/07/28 00:56:02;;;;;;;4.43;4.07;;;;;;;26.11;46.12;98086.66;5054223;28;20225;-58
2021/07/28 00:58:30;;;;;;;4.13;3.83;;;;;;;26.13;46.18;98087.25;5043970;28;20198;-58
2021/07/28 01:00:57;;;;;;;3.90;3.60;;;;;;;26.15;46.17;98082.53;5062623;28;20197;-57
2021/07/28 01:03:24;;;;;;;4.23;3.83;;;;;;;26.17;46.08;98080.44;5046660;28;20206;-58
2021/07/28 01:05:51;;;;;;;4.20;3.90;;;;;;;26.16;45.94;98073.47;5045342;28;20191;-58
2021/07/28 01:08:18;;;;;;;3.97;3.67;;;;;;;26.05;46.34;98070.47;5041007;28;20675;-58
2021/07/28 01:10:45;;;;;;;4.40;4.10;;;;;;;26.01;46.56;98071.13;5050460;28;20202;-58
2021/07/28 01:13:12;;;;;;;4.47;4.17;;;;;;;25.98;46.19;98067.03;5052201;28;20226;-58
2021/07/28 01:18:08;;;;;;;4.63;4.20;;;;;;;26.08;46.21;98063.88;5048403;28;20619;-58
2021/07/28 01:20:40;;;;;;;4.00;3.70;;;;;;;26.13;45.99;98052.50;5045836;28;20166;-58
2021/07/28 01:23:26;;;;;;;4.00;3.70;;;;;;;26.10;46.25;98043.06;5046706;28;20217;-58
2021/07/28 01:25:54;;;;;;;4.00;3.70;;;;;;;26.10;46.25;98048.41;5044542;28;20179;-58
2021/07/28 01:28:23;;;;;;;3.77;3.57;;;;;;;25.98;46.50;98051.00;5045453;28;20186;-58
2021/07/28 01:31:03;;;;;;;3.80;3.50;;;;;;;25.94;46.53;98053.28;5044595;28;20189;-58
2021/07/28 01:33:32;;;;;;;3.73;3.43;;;;;;;25.94;46.63;98057.81;5060785;28;20236;-58
2021/07/28 01:35:59;;;;;;;3.33;3.13;;;;;;;26.05;46.21;98048.25;5045501;28;20198;-58
2021/07/28 01:38:27;;;;;;;3.70;3.40;;;;;;;26.06;46.25;98058.72;5044273;28;20252;-58
2021/07/28 01:40:55;;;;;;;3.83;3.53;;;;;;;26.05;45.94;98059.78;5046694;28;20300;-58
2021/07/28 01:43:23;;;;;;;3.80;3.50;;;;;;;26.08;46.16;98051.31;5040098;28;20210;-58
2021/07/28 01:45:49;;;;;;;4.37;4.00;;;;;;;26.08;46.21;98053.19;5043505;28;20202;-58
2021/07/28 01:48:16;;;;;;;3.90;3.60;;;;;;;26.08;45.98;98055.84;5046532;28;20182;-58
2021/07/28 01:50:45;;;;;;;4.03;3.73;;;;;;;26.10;45.80;98052.94;5040412;28;20193;-58
2021/07/28 01:53:13;;;;;;;4.10;3.70;;;;;;;26.08;46.20;98056.66;5044258;28;20210;-58
2021/07/28 01:55:40;;;;;;;4.10;3.80;;;;;;;26.11;45.76;98054.56;5043765;28;20192;-58
2021/07/28 01:58:06;;;;;;;3.67;3.37;;;;;;;26.12;46.08;98053.53;5043094;28;20230;-58
2021/07/28 02:00:33;;;;;;;4.30;3.90;;;;;;;26.12;45.78;98058.88;5044142;28;20209;-57
2021/07/28 02:03:03;;;;;;;3.80;3.50;;;;;;;26.12;45.75;98053.53;5042677;28;20205;-58
2021/07/28 02:05:31;;;;;;;4.10;3.80;;;;;;;26.09;46.05;98060.16;5044425;28;20202;-58
2021/07/28 02:08:05;;;;;;;4.07;3.77;;;;;;;26.05;45.95;98054.44;5058913;28;20197;-58
2021/07/28 02:10:37;;;;;;;4.87;4.40;;;;;;;26.05;46.03;98057.09;5043566;28;20181;-58
2021/07/28 02:13:05;;;;;;;3.90;3.60;;;;;;;25.94;46.46;98066.66;5041679;28;20248;-58
2021/07/28 02:15:33;;;;;;;4.50;4.10;;;;;;;25.97;46.08;98062.72;5043731;28;20182;-59
2021/07/28 02:17:59;;;;;;;3.93;3.63;;;;;;;25.95;46.27;98054.09;5047096;28;20200;-58
2021/07/28 02:20:27;;;;;;;3.67;3.47;;;;;;;25.98;46.41;98060.88;5045769;28;20193;-58
2021/07/28 02:22:53;;;;;;;3.57;3.27;;;;;;;26.10;45.66;98053.78;5042097;28;20206;-58
2021/07/28 02:25:20;;;;;;;3.97;3.67;;;;;;;26.11;45.97;98050.06;5058912;28;20213;-58
2021/07/28 02:27:47;;;;;;;3.60;3.40;;;;;;;26.05;45.93;98048.25;5044154;28;20197;-58
2021/07/28 02:30:16;;;;;;;4.10;3.80;;;;;;;26.03;45.70;98051.16;5043956;28;20194;-58
2021/07/28 02:32:44;;;;;;;4.10;3.40;;;;;;;26.00;45.71;98042.75;5043467;28;20221;-58
2021/07/28 02:35:14;;;;;;;3.60;3.33;;;;;;;25.97;45.91;98043.19;5044382;28;20625;-58
2021/07/28 02:37:45;;;;;;;3.90;3.60;;;;;;;25.93;45.92;98053.50;5040696;28;20198;-57
2021/07/28 02:40:17;;;;;;;3.73;3.43;;;;;;;25.91;46.27;98058.25;5052612;28;20217;-57
2021/07/28 02:42:44;;;;;;;4.13;3.77;;;;;;;25.90;46.25;98053.94;5039207;28;20214;-57
2021/07/28 02:45:10;;;;;;;3.83;3.53;;;;;;;25.89;45.99;98052.31;5038163;28;20221;-57
2021/07/28 02:47:37;;;;;;;3.70;3.40;;;;;;;25.88;46.23;98056.81;5040310;28;20194;-58
2021/07/28 02:50:04;;;;;;;3.90;3.60;;;;;;;25.90;45.94;98056.63;5049275;28;20190;-58
2021/07/28 02:52:31;;;;;;;4.00;3.70;;;;;;;25.87;46.44;98055.19;5056537;28;20580;-59
2021/07/28 02:55:03;;;;;;;3.83;3.53;;;;;;;25.88;46.25;98050.69;5040265;28;20185;-57
2021/07/28 02:57:30;;;;;;;4.07;3.77;;;;;;;25.88;46.12;98050.69;5048637;28;20170;-58
2021/07/28 02:59:57;;;;;;;4.10;3.80;;;;;;;25.88;45.98;98045.34;5046687;28;20190;-58
2021/07/28 03:02:23;;;;;;;3.40;3.13;;;;;;;25.76;46.37;98061.28;5047393;28;20228;-58
2021/07/28 03:04:50;;;;;;;3.70;3.40;;;;;;;25.73;46.22;98059.00;5047185;28;20206;-58
2021/07/28 03:07:16;;;;;;;3.83;3.53;;;;;;;25.79;46.52;98063.50;5046282;28;20190;-58
2021/07/28 03:09:43;;;;;;;4.20;3.90;;;;;;;25.84;46.36;98060.97;5048493;28;20213;-58
2021/07/28 03:12:09;;;;;;;3.83;3.50;;;;;;;25.89;46.13;98052.31;5046700;28;20210;-58
2021/07/28 03:14:36;;;;;;;3.63;3.33;;;;;;;25.89;46.20;98058.50;5046266;28;20186;-58
2021/07/28 03:17:02;;;;;;;3.83;3.53;;;;;;;25.87;46.18;98057.88;5046539;28;20186;-58
2021/07/28 03:19:29;;;;;;;3.83;3.53;;;;;;;25.88;45.96;98054.16;5047561;28;20547;-57
2021/07/28 03:21:55;;;;;;;3.83;3.53;;;;;;;25.87;46.25;98062.41;5047177;28;20249;-58
2021/07/28 03:24:22;;;;;;;3.70;3.40;;;;;;;25.87;45.89;98059.75;5047203;28;20206;-58
2021/07/28 03:26:48;;;;;;;3.63;3.33;;;;;;;25.89;45.80;98052.31;5047273;28;20186;-58
2021/07/28 03:29:15;;;;;;;4.40;3.83;;;;;;;25.90;46.10;98053.94;5048521;28;20190;-58
2021/07/28 03:31:41;;;;;;;4.17;3.87;;;;;;;25.93;45.76;98053.50;5046412;28;20225;-58
2021/07/28 03:34:08;;;;;;;3.80;3.50;;;;;;;25.92;46.01;98052.69;5046184;28;20198;-58
2021/07/28 03:36:34;;;;;;;4.00;3.70;;;;;;;25.92;46.01;98054.53;5047689;28;20229;-58
2021/07/28 03:39:01;;;;;;;4.07;3.67;;;;;;;25.89;46.06;98060.34;5045975;28;20538;-58
2021/07/28 03:41:27;;;;;;;3.60;3.40;;;;;;;25.87;45.95;98057.06;5046454;28;20193;-58
2021/07/28 03:43:54;;;;;;;3.53;3.23;;;;;;;25.84;45.93;98057.50;5047511;28;20264;-58
2021/07/28 03:46:20;;;;;;;4.00;3.70;;;;;;;25.80;45.93;98052.56;5047182;28;20206;-58
2021/07/28 03:48:47;;;;;;;3.70;3.40;;;;;;;25.80;45.95;98063.25;5047053;28;20194;-58
2021/07/28 03:51:13;;;;;;;3.87;3.57;;;;;;;25.79;46.04;98053.63;5046829;28;20185;-58
2021/07/28 03:53:40;;;;;;;4.00;3.70;;;;;;;25.80;45.93;98035.75;5046302;28;20217;-60
2021/07/28 03:56:06;;;;;;;3.27;3.03;;;;;;;25.80;46.13;98043.75;5046782;28;20190;-58
2021/07/28 03:58:33;;;;;;;3.30;3.10;;;;;;;25.79;45.84;98045.59;5044820;28;20239;-58
2021/07/28 04:01:00;;;;;;;3.50;3.30;;;;;;;25.82;46.14;98040.88;5046155;28;20194;-58
2021/07/28 04:03:26;;;;;;;3.60;3.33;;;;;;;25.82;46.01;98043.56;5044192;28;20222;-58
2021/07/28 04:05:54;;;;;;;3.90;3.60;;;;;;;25.76;46.29;98042.56;5047016;28;20213;-58
2021/07/28 04:08:21;;;;;;;3.60;3.30;;;;;;;25.71;46.08;98045.06;5061087;28;20198;-58
2021/07/28 04:10:48;;;;;;;3.63;3.33;;;;;;;25.74;46.09;98045.44;5045950;28;20201;-58
2021/07/28 04:13:15;;;;;;;4.27;3.97;;;;;;;25.76;45.89;98047.91;5046321;28;20209;-58
2021/07/28 04:15:42;;;;;;;3.90;3.60;;;;;;;25.84;45.92;98039.59;5046357;28;20182;-58
2021/07/28 04:18:09;;;;;;;4.07;3.67;;;;;;;25.88;45.83;98040.00;5046810;28;20185;-58
2021/07/28 04:20:35;;;;;;;3.50;3.30;;;;;;;25.96;45.45;98042.38;5046629;28;20190;-58
2021/07/28 04:23:02;;;;;;;4.40;3.60;;;;;;;25.97;45.44;98040.53;5061710;28;20218;-58
2021/07/28 04:25:29;;;;;;;3.73;3.43;;;;;;;25.95;45.41;98040.72;5044735;28;20202;-58
2021/07/28 04:27:55;;;;;;;3.80;3.50;;;;;;;25.90;45.61;98029.88;5046310;28;20197;-58
2021/07/28 04:30:22;;;;;;;3.60;3.30;;;;;;;25.90;45.61;98030.72;5046373;28;20194;-58
2021/07/28 04:32:49;;;;;;;3.90;3.60;;;;;;;25.94;45.36;98034.59;5044488;28;20237;-58
2021/07/28 04:35:15;;;;;;;3.60;3.40;;;;;;;25.91;45.42;98039.53;5061207;28;20202;-58
2021/07/28 04:37:41;;;;;;;3.80;3.50;;;;;;;25.89;45.83;98038.94;5044466;28;20536;-58
2021/07/28 04:40:09;;;;;;;3.30;3.10;;;;;;;25.88;45.63;98042.66;5046650;28;20182;-58
2021/07/28 04:42:36;;;;;;;3.97;3.60;;;;;;;25.87;45.75;98041.84;5044781;28;20210;-58
2021/07/28 04:45:05;;;;;;;4.10;3.80;;;;;;;25.95;45.55;98046.06;5045385;28;20206;-58
2021/07/28 04:47:33;;;;;;;3.23;3.03;;;;;;;25.96;45.60;98037.00;5044503;28;20190;-58
2021/07/28 04:50:00;;;;;;;3.73;3.43;;;;;;;26.01;45.40;98033.69;5045140;28;20217;-58
2021/07/28 04:52:26;;;;;;;3.53;3.30;;;;;;;26.01;45.26;98031.84;5045768;28;20210;-58
2021/07/28 04:54:53;;;;;;;3.57;3.27;;;;;;;26.07;45.36;98038.97;5045388;28;20628;-58
2021/07/28 04:57:19;;;;;;;3.50;3.30;;;;;;;26.06;45.27;98044.56;5043192;28;20209;-58
2021/07/28 04:59:46;;;;;;;3.57;3.37;;;;;;;26.06;44.96;98048.03;5045647;28;20190;-58
2021/07/28 05:02:13;;;;;;;3.70;3.40;;;;;;;26.11;44.99;98047.38;5043772;28;20255;-58
2021/07/28 05:04:39;;;;;;;3.43;3.23;;;;;;;26.10;45.31;98052.94;5044736;28;20194;-58
2021/07/28 05:07:06;;;;;;;4.73;3.70;;;;;;;26.11;44.88;98049.22;5044252;28;20204;-58
2021/07/28 05:09:32;;;;;;;3.70;3.40;;;;;;;26.11;45.18;98055.41;5060588;28;20552;-58
2021/07/28 05:11:59;;;;;;;3.93;3.60;;;;;;;26.12;44.90;98053.53;5042675;28;20222;-59
2021/07/28 05:14:25;;;;;;;3.73;3.43;;;;;;;25.93;45.50;98054.34;5045355;28;20190;-58
2021/07/28 05:16:52;;;;;;;3.87;3.60;;;;;;;26.04;45.20;98054.63;5043415;28;20194;-58
2021/07/28 05:19:18;;;;;;;3.80;3.50;;;;;;;26.04;45.20;98055.47;5044719;28;20197;-58
2021/07/28 05:21:45;;;;;;;3.80;3.50;;;;;;;26.06;45.20;98057.94;5045686;28;20264;-58
2021/07/28 05:24:11;;;;;;;3.93;3.40;;;;;;;26.03;45.22;98059.19;5045662;28;20509;-58
2021/07/28 05:26:38;;;;;;;3.40;3.20;;;;;;;26.03;45.21;98053.84;5045102;28;20218;-58
2021/07/28 05:29:04;;;;;;;4.03;3.73;;;;;;;26.03;44.94;98059.19;5043986;28;20198;-58
2021/07/28 05:31:31;;;;;;;3.57;3.37;;;;;;;26.03;45.37;98056.50;5044740;28;20255;-58
2021/07/28 05:33:57;;;;;;;3.40;3.20;;;;;;;26.04;45.32;98050.13;5045322;28;20248;-58
2021/07/28 05:36:24;;;;;;;4.00;3.30;;;;;;;26.05;45.23;98051.75;5044383;28;20194;-58
2021/07/28 05:38:50;;;;;;;3.37;3.17;;;;;;;26.09;45.08;98049.47;5043982;28;20236;-58
2021/07/28 05:41:16;;;;;;;3.70;3.40;;;;;;;26.12;45.07;98050.84;5043824;28;20195;-58
2021/07/28 05:43:43;;;;;;;3.80;3.50;;;;;;;26.10;44.80;98058.28;5043574;28;20213;-58
2021/07/28 05:46:10;;;;;;;3.70;3.40;;;;;;;26.07;45.02;98063.03;5041428;28;20210;-58
2021/07/28 05:48:36;;;;;;;3.67;3.37;;;;;;;26.03;45.03;98063.69;5043163;28;20250;-58
2021/07/28 05:51:03;;;;;;;3.93;3.60;;;;;;;26.02;45.16;98065.56;5043169;28;20202;-58
2021/07/28 05:53:29;;;;;;;3.40;3.10;;;;;;;26.01;45.45;98069.28;5044379;28;20268;-58
2021/07/28 05:55:56;;;;;;;3.37;3.17;;;;;;;26.02;45.09;98068.25;5043469;28;20186;-58
2021/07/28 05:58:22;;;;;;;3.63;3.33;;;;;;;26.04;45.05;98059.97;5058899;28;20198;-59
2021/07/28 06:00:49;;;;;;;3.93;3.63;;;;;;;26.01;45.01;98071.13;5035485;28;20251;-60
2021/07/28 06:03:17;;;;;;;6.27;5.00;;;;;;;25.91;45.42;98083.16;5033995;28;20222;-61
2021/07/28 06:05:44;;;;;;;7.63;6.80;;;;;;;25.75;46.02;98073.00;5033674;28;20201;-62
2021/07/28 06:08:10;;;;;;;10.77;7.00;;;;;;;25.71;46.17;98077.94;5033960;28;20256;-62
2021/07/28 06:10:37;;;;;;;9.63;6.90;;;;;;;25.64;46.48;98071.81;5033488;28;20186;-60
2021/07/28 06:13:03;;;;;;;8.30;7.50;;;;;;;25.58;46.47;98078.06;5033603;28;20217;-63
2021/07/28 06:15:30;;;;;;;9.87;7.80;;;;;;;25.68;46.24;98073.06;5033430;28;20652;-62
2021/07/28 06:17:56;;;;;;;8.83;7.10;;;;;;;25.68;46.58;98078.41;5032242;28;20281;-61
2021/07/28 06:20:23;;;;;;;8.40;6.93;;;;;;;25.68;46.73;98078.41;5032257;28;20209;-62
2021/07/28 06:22:49;;;;;;;10.90;7.30;;;;;;;25.65;46.59;98074.28;5033127;28;20209;-62
2021/07/28 06:25:16;;;;;;;7.50;6.57;;;;;;;25.59;46.90;98075.16;5048612;28;20216;-62
2021/07/28 06:27:45;;;;;;;8.13;7.30;;;;;;;25.57;46.66;98076.41;5033474;28;20281;-62
2021/07/28 06:30:12;;;;;;;9.53;7.50;;;;;;;25.59;46.95;98075.16;5033116;28;20220;-62
2021/07/28 06:32:38;;;;;;;8.67;7.00;;;;;;;25.51;46.96;98081.59;5034447;28;20206;-59
2021/07/28 06:35:05;;;;;;;8.57;6.90;;;;;;;25.51;47.00;98070.09;5050855;28;20206;-59
2021/07/28 06:37:32;;;;;;;7.00;6.30;;;;;;;25.58;47.15;98080.72;5037533;28;20194;-59
2021/07/28 06:39:59;;;;;;;6.87;6.00;;;;;;;25.61;47.02;98075.78;5040131;28;20570;-59
2021/07/28 06:42:25;;;;;;;8.40;6.80;;;;;;;25.68;46.67;98073.06;5039285;28;20248;-62
2021/07/28 06:44:52;;;;;;;8.07;6.47;;;;;;;25.70;46.90;98065.63;5042804;28;20209;-60
2021/07/28 06:47:19;;;;;;;6.57;5.93;;;;;;;25.78;46.64;98068.00;5043211;28;20201;-61
2021/07/28 06:49:46;;;;;;;6.73;6.13;;;;;;;25.81;46.28;98072.13;5059228;28;20198;-60
2021/07/28 06:52:12;;;;;;;8.13;6.10;;;;;;;25.74;46.61;98076.72;5038793;28;20210;-62
2021/07/28 06:54:39;;;;;;;7.37;6.07;;;;;;;25.67;46.64;98076.75;5032999;28;20193;-61
2021/07/28 06:57:05;;;;;;;8.20;7.40;;;;;;;25.62;47.59;98080.06;5034523;28;20448;-63
2021/07/28 06:59:32;;;;;;;7.60;6.80;;;;;;;25.69;47.42;98081.88;5035832;28;20575;-61
2021/07/28 07:01:58;;;;;;;7.87;7.10;;;;;;;25.62;47.38;98084.59;5037271;28;20213;-63
2021/07/28 07:04:25;;;;;;;8.13;7.07;;;;;;;25.57;47.38;98077.25;5032712;28;20190;-62
2021/07/28 07:06:54;;;;;;;7.80;7.10;;;;;;;25.48;48.12;98075.88;5051558;28;20280;-62
2021/07/28 07:09:21;;;;;;;7.73;6.93;;;;;;;25.51;47.66;98078.94;5052644;28;20217;-62
2021/07/28 07:11:48;;;;;;;8.20;7.30;;;;;;;25.46;47.83;98080.56;5052513;28;20217;-63
2021/07/28 07:14:14;;;;;;;8.60;7.20;;;;;;;25.45;48.17;98071.72;5043396;28;20252;-62
2021/07/28 07:16:41;;;;;;;8.00;7.20;;;;;;;25.47;48.15;98077.66;5031350;28;20197;-61
2021/07/28 07:19:07;;;;;;;10.43;7.70;;;;;;;25.55;47.97;98078.50;5032536;28;20191;-62
2021/07/28 07:21:34;;;;;;;7.30;6.60;;;;;;;25.53;48.19;98080.56;5033043;28;20228;-60
2021/07/28 07:24:00;;;;;;;7.03;6.40;;;;;;;25.56;48.18;98074.78;5031299;28;20194;-60
2021/07/28 07:26:27;;;;;;;8.33;6.83;;;;;;;25.61;48.03;98072.25;5032493;28;20680;-61
2021/07/28 07:28:53;;;;;;;7.67;6.80;;;;;;;25.63;48.18;98070.19;5031201;28;20221;-61
2021/07/28 07:31:20;;;;;;;10.93;6.67;;;;;;;25.57;48.51;98068.41;5042152;28;20522;-60
2021/07/28 07:33:46;;;;;;;7.23;6.53;;;;;;;25.59;48.35;98069.00;5052274;28;20757;-60
2021/07/28 07:36:17;;;;;;;8.07;6.90;;;;;;;25.59;48.67;98069.00;5054699;28;20186;-60
2021/07/28 07:38:44;;;;;;;7.77;6.90;;;;;;;25.61;48.27;98064.25;5056123;28;20220;-61
2021/07/28 07:41:10;;;;;;;7.57;6.87;;;;;;;25.60;48.65;98059.94;5056373;28;20243;-61
2021/07/28 07:43:37;;;;;;;7.60;6.67;;;;;;;25.63;48.25;98060.34;5055352;28;20557;-60
2021/07/28 07:46:04;;;;;;;8.87;6.43;;;;;;;25.61;48.60;98050.88;5055047;28;20212;-57
2021/07/28 07:48:30;;;;;;;7.50;6.10;;;;;;;25.63;48.41;98056.84;5057739;28;20240;-59
2021/07/28 07:50:57;;;;;;;7.33;6.63;;;;;;;25.69;48.40;98060.50;5058684;28;20193;-58
2021/07/28 07:53:24;;;;;;;6.70;6.00;;;;;;;25.75;47.96;98062.31;5059159;28;20209;-58
2021/07/28 07:55:50;;;;;;;6.67;6.07;;;;;;;25.84;47.94;98060.19;5058992;28;20590;-60
2021/07/28 07:58:17;;;;;;;6.83;6.17;;;;;;;25.91;47.82;98056.41;5057511;28;20228;-58
2021/07/28 08:00:43;;;;;;;6.93;6.33;;;;;;;25.98;47.60;98056.34;5058702;28;20198;-58
2021/07/28 08:03:10;;;;;;;6.43;5.83;;;;;;;26.07;47.12;98056.88;5057380;28;20263;-58
2021/07/28 08:05:37;;;;;;;6.13;5.60;;;;;;;26.04;47.27;98054.63;5048042;28;20208;-59
2021/07/28 08:08:04;;;;;;;6.83;6.23;;;;;;;26.07;47.22;98060.38;5038379;28;20194;-58
2021/07/28 08:10:30;;;;;;;6.90;6.17;;;;;;;26.17;46.62;98059.06;5037350;28;20664;-58
2021/07/28 08:12:57;;;;;;;6.50;5.80;;;;;;;26.20;46.56;98059.44;5036786;28;20217;-58
2021/07/28 08:15:23;;;;;;;7.10;6.47;;;;;;;26.24;46.82;98048.31;5038205;28;20193;-60
2021/07/28 08:17:50;;;;;;;6.33;5.73;;;;;;;26.26;46.39;98041.69;5038158;28;20599;-60
2021/07/28 08:20:17;;;;;;;5.83;5.23;;;;;;;26.26;46.14;98036.34;5037710;28;20286;-59
2021/07/28 08:22:43;;;;;;;6.17;5.57;;;;;;;26.27;46.38;98048.69;5038117;28;20206;-59
2021/07/28 08:25:10;;;;;;;6.50;5.90;;;;;;;26.28;46.50;98052.19;5038366;28;20216;-60
2021/07/28 08:27:36;;;;;;;6.10;5.50;;;;;;;26.27;46.53;98047.88;5038110;28;20297;-59
2021/07/28 08:30:03;;;;;;;6.40;5.80;;;;;;;26.29;46.57;98046.59;5037949;28;20189;-59
2021/07/28 08:32:30;;;;;;;6.33;5.80;;;;;;;26.27;46.15;98046.00;5037742;28;20308;-58
2021/07/28 08:34:56;;;;;;;6.20;5.67;;;;;;;26.29;46.06;98049.25;5036310;28;20206;-59
2021/07/28 08:37:23;;;;;;;6.77;5.80;;;;;;;26.32;46.28;98050.69;5038459;28;20248;-60
2021/07/28 08:39:50;;;;;;;6.30;5.70;;;;;;;26.31;46.15;98055.25;5038012;28;20284;-60
2021/07/28 08:42:17;;;;;;;5.70;5.03;;;;;;;26.37;45.89;98053.50;5037685;28;20577;-59
2021/07/28 08:44:44;;;;;;;7.93;5.50;;;;;;;26.42;45.82;98060.88;5038478;28;20193;-59
2021/07/28 08:47:11;;;;;;;5.50;5.00;;;;;;;26.47;45.78;98064.50;5036183;28;20225;-60
2021/07/28 08:49:37;;;;;;;5.80;5.30;;;;;;;26.52;45.60;98060.34;5037521;28;20186;-58
2021/07/28 08:52:04;;;;;;;6.20;5.60;;;;;;;26.47;45.52;98071.75;5037605;28;20272;-59
2021/07/28 08:54:31;;;;;;;5.53;4.97;;;;;;;26.49;45.61;98066.97;5037561;28;20240;-60
2021/07/28 08:56:58;;;;;;;6.03;5.53;;;;;;;26.44;45.62;98064.97;5038142;28;20232;-59
2021/07/28 08:59:33;;;;;;;5.70;5.20;;;;;;;26.45;45.57;98063.94;5037878;28;20299;-59
2021/07/28 09:02:01;;;;;;;6.07;5.47;;;;;;;26.43;45.58;98067.84;5036123;28;20202;-60
2021/07/28 09:04:28;;;;;;;5.60;5.10;;;;;;;26.38;46.01;98060.53;5037296;28;20183;-60
2021/07/28 09:06:56;;;;;;;5.37;4.87;;;;;;;26.38;46.04;98060.53;5055254;28;20209;-59
2021/07/28 09:09:22;;;;;;;6.10;5.37;;;;;;;26.31;45.81;98065.09;5055093;28;20281;-60
2021/07/28 09:11:53;;;;;;;5.50;5.00;;;;;;;26.34;45.87;98061.97;5055985;28;20611;-59
2021/07/28 09:14:23;;;;;;;5.27;4.87;;;;;;;26.39;45.93;98055.97;5056920;28;20247;-60
2021/07/28 09:16:51;;;;;;;5.40;5.00;;;;;;;26.35;45.91;98052.91;5059594;28;20260;-58
2021/07/28 09:19:41;;;;;;;5.80;5.30;;;;;;;26.35;46.06;98051.06;5059993;28;20186;-58
2021/07/28 09:22:08;;;;;;;5.90;5.40;;;;;;;26.36;46.14;98051.88;5058365;28;20209;-58
2021/07/28 09:24:35;;;;;;;5.57;5.10;;;;;;;26.27;46.05;98054.03;5059805;28;20192;-58
2021/07/28 09:27:02;;;;;;;5.40;5.00;;;;;;;26.25;46.29;98058.78;5060040;28;20210;-56
2021/07/28 09:29:29;;;;;;;5.77;5.27;;;;;;;26.27;46.14;98055.91;5059531;28;20188;-58
2021/07/28 09:32:01;;;;;;;5.97;5.43;;;;;;;26.28;46.41;98061.00;5057976;28;20243;-59
2021/07/28 09:34:27;;;;;;;5.40;5.00;;;;;;;26.29;46.38;98057.28;5058825;28;20203;-58
2021/07/28 09:36:58;;;;;;;5.10;4.70;;;;;;;26.29;46.21;98056.50;5058976;28;20193;-59
2021/07/28 09:39:24;;;;;;;4.83;4.33;;;;;;;26.30;46.38;98063.47;5057774;28;20197;-58
2021/07/28 09:41:53;;;;;;;5.20;4.80;;;;;;;26.32;46.05;98056.88;5058862;28;20205;-58
2021/07/28 09:44:31;;;;;;;5.00;4.57;;;;;;;26.36;46.17;98063.41;5058809;28;20190;-57
2021/07/28 09:47:18;;;;;;;5.70;5.10;;;;;;;26.35;46.31;98060.94;5058984;28;20197;-58
2021/07/28 09:49:50;;;;;;;4.73;4.33;;;;;;;26.35;46.29;98071.63;5058885;28;20627;-58
2021/07/28 09:52:20;;;;;;;4.80;4.40;;;;;;;26.39;46.07;98069.34;5056995;28;20214;-58
2021/07/28 09:54:51;;;;;;;5.20;4.80;;;;;;;26.40;46.05;98060.28;5059464;28;20201;-58
2021/07/28 09:57:20;;;;;;;4.90;4.50;;;;;;;26.41;45.97;98059.22;5058875;28;20624;-59
2021/07/28 09:59:51;;;;;;;5.00;4.60;;;;;;;26.33;45.90;98061.19;5058606;28;20182;-58
2021/07/28 10:02:20;;;;;;;5.13;4.73;;;;;;;26.31;45.87;98055.25;5058449;28;20220;-57
2021/07/28 10:04:51;;;;;;;5.13;4.73;;;;;;;26.35;46.17;98053.75;5054690;28;20189;-58
2021/07/28 10:07:20;;;;;;;5.70;5.10;;;;;;;26.36;45.97;98058.06;5034426;28;20567;-61
2021/07/28 10:09:52;;;;;;;5.67;5.17;;;;;;;26.39;45.59;98059.47;5033505;28;20225;-61
2021/07/28 10:12:19;;;;;;;7.10;5.50;;;;;;;26.38;45.78;98054.34;5033505;28;20214;-61
2021/07/28 10:14:47;;;;;;;5.83;5.33;;;;;;;26.39;45.84;98062.16;5034045;28;20656;-62
2021/07/28 10:17:13;;;;;;;7.43;5.50;;;;;;;26.36;46.08;98067.91;5032433;28;20197;-61
2021/07/28 10:19:40;;;;;;;5.53;5.03;;;;;;;26.36;45.92;98063.41;5033529;28;20190;-61
2021/07/28 10:22:31;;;;;;;7.27;5.40;;;;;;;26.35;46.00;98069.78;5032325;28;20214;-61
2021/07/28 10:25:00;;;;;;;9.10;5.30;;;;;;;26.31;46.00;98065.94;5033907;28;20225;-58
2021/07/28 10:27:26;;;;;;;5.60;5.10;;;;;;;26.29;46.46;98057.28;5033990;28;20230;-61
2021/07/28 10:29:53;;;;;;;5.60;4.97;;;;;;;26.36;46.35;98063.41;5034009;28;20213;-63
2021/07/28 10:32:33;;;;;;;5.53;5.03;;;;;;;26.40;46.28;98058.44;5033231;28;20265;-63
2021/07/28 10:35:21;;;;;;;6.13;5.53;;;;;;;26.61;45.91;98051.00;5033188;28;20225;-61
2021/07/28 10:37:49;;;;;;;6.23;5.47;;;;;;;26.66;45.44;98050.31;5031979;28;20661;-62
2021/07/28 10:40:34;;;;;;;5.57;5.00;;;;;;;26.69;45.47;98056.03;5032303;28;20194;-61
2021/07/28 10:43:02;;;;;;;5.33;4.83;;;;;;;26.67;45.94;98054.63;5033441;28;20230;-61
2021/07/28 10:46:04;;;;;;;7.43;5.40;;;;;;;26.64;45.76;98047.84;5033335;28;20194;-61
2021/07/28 10:48:51;;;;;;;5.33;4.90;;;;;;;26.67;45.67;98051.97;5011376;28;20195;-62
2021/07/28 10:51:50;;;;;;;5.77;5.27;;;;;;;26.64;45.83;98050.53;5032191;28;20205;-61
2021/07/28 10:54:18;;;;;;;5.43;4.93;;;;;;;26.59;46.17;98051.19;5032007;28;20185;-62
2021/07/28 10:57:07;;;;;;;6.60;5.20;;;;;;;26.60;46.28;98052.03;5029545;28;20191;-62
2021/07/28 10:59:40;;;;;;;5.33;4.83;;;;;;;26.67;45.99;98059.97;5032831;28;20652;-63
2021/07/28 11:02:07;;;;;;;5.80;5.30;;;;;;;26.63;46.18;98057.75;5033783;28;20218;-62
2021/07/28 11:04:34;;;;;;;5.90;4.97;;;;;;;26.61;45.90;98059.81;5032741;28;20250;-63
2021/07/28 11:07:01;;;;;;;5.03;4.63;;;;;;;26.62;46.28;98066.84;5046683;28;20202;-61
2021/07/28 11:09:28;;;;;;;6.20;5.10;;;;;;;26.67;46.25;98058.09;5031567;28;20202;-64
2021/07/28 11:11:55;;;;;;;5.50;4.83;;;;;;;26.76;46.12;98055.94;5037293;28;20550;-63
2021/07/28 11:14:22;;;;;;;6.37;5.60;;;;;;;26.77;46.32;98052.22;5036945;28;20193;-63
2021/07/28 11:16:53;;;;;;;5.47;4.97;;;;;;;26.82;46.10;98054.22;5047689;28;20185;-60
2021/07/28 11:19:22;;;;;;;6.20;5.17;;;;;;;26.82;46.41;98049.72;5057049;28;20181;-61
2021/07/28 11:21:49;;;;;;;5.73;5.13;;;;;;;26.85;46.16;98051.94;5055481;28;20691;-63
2021/07/28 11:24:17;;;;;;;5.60;5.10;;;;;;;26.87;46.24;98051.75;5044030;28;20281;-62
2021/07/28 11:26:47;;;;;;;5.67;4.77;;;;;;;26.92;45.76;98044.63;5044744;28;20208;-62
2021/07/28 11:29:19;;;;;;;5.77;5.27;;;;;;;27.00;46.07;98053.41;5055268;28;20190;-63
2021/07/28 11:31:51;;;;;;;6.53;5.27;;;;;;;27.05;45.95;98053.53;5039358;28;20645;-63
2021/07/28 11:34:55;;;;;;;5.73;5.23;;;;;;;27.00;45.72;98045.38;5040841;28;20201;-62
2021/07/28 11:37:21;;;;;;;5.40;4.90;;;;;;;26.95;46.23;98053.28;5056519;28;20181;-63
2021/07/28 11:39:50;;;;;;;7.13;5.20;;;;;;;26.96;45.98;98052.25;5056298;28;20200;-62
2021/07/28 11:42:17;;;;;;;5.50;5.00;;;;;;;26.96;46.14;98054.94;5056265;28;20209;-63
2021/07/28 11:44:45;;;;;;;6.20;5.47;;;;;;;27.02;46.10;98051.31;5051291;28;20248;-62
2021/07/28 11:47:12;;;;;;;6.70;5.00;;;;;;;27.03;45.98;98045.75;5046613;28;20297;-61